Plumtree, NC (28664)

8:36 AM EST on February 26, 2017 (GMT -0500)
Bakersville | | Change Station

Elev 2700 ft 35.99 °N, 82.13 °W | Updated 26 seconds ago

Clear
Clear
28.8 °F
Feels Like 25 °F
N
3.2
Wind Variable Wind from NNW
Gusts 6.0 mph

Today
High -- | Low -- °F
--% Chance of Precip.
Yesterday
High -- | Low -- °F
Precip. -- in
Pressure 30.03 in
Visibility 10.0 miles
Clouds Clear
Windchill 25 °F
Dew Point 17 °F
Humidity 60%
Rainfall 0.00 in
Snow Depth Not available.
7:01 AM 6:20 PM
Waning Crescent, 0% visible
METAR KTNB 261315Z AUTO 29024G33KT 10SM CLR M04/M10 A3003 RMK AO2 T10401101
Pressure 30.03 in
Visibility 10.0 miles
Clouds Clear
Windchill 25 °F
Dew Point 17 °F
Humidity 60%
Rainfall 0.00 in
Snow Depth Not available.
7:01 AM 6:20 PM
Waning Crescent, 0% visible
METAR KTNB 261315Z AUTO 29024G33KT 10SM CLR M04/M10 A3003 RMK AO2 T10401101

Get Your Daily Forecast Email!

Thanks for signing up!

Be on the lookout for a verification email in your inbox.

You'll start receiving the daily forecast at 8 AM.

×

10-Day Weather Forecast

Almanac

Astronomy

Feb. 26, 2017 Rise Set
Actual Time
Civil Twilight
Nautical Twilight
Astronomical Twilight
Moon
Length of Visible Light
Length of Day
Tomorrow will be .
, % of the Moon is Illuminated

Today's Extremes

State Highs State Lows

Community

WunderPhotos

Upload Photos

1,962,540 photos uploaded!

WunderBlog® & News

Nearby

Air Quality

  Air Quality AQ Index Pollutant
Not available.

Snow Depth

Station Depth Elevation

Earthquake Activity

City Distance Mag. Time & Date
Minimum magnitude displayed is 2.5.

Coastal Water Temperatures

Place Temperature

Stations

Nearby Weather Stations

Station Location Temp. Windchill Dew Point Humidity Wind Precip. Elev Updated Type
                   

Watches & Warnings

There are currently no watches in effect.